createdAt,value
2018-12-25T00:04:05.896Z,52.6
2018-12-25T00:09:03.784Z,52.7
2018-12-25T00:14:01.738Z,52.7
2018-12-25T00:19:06.557Z,52.7
2018-12-25T00:24:02.793Z,52.6
2018-12-25T00:29:00.478Z,52.6
2018-12-25T00:33:58.438Z,52.7
2018-12-25T00:38:55.723Z,52.6
2018-12-25T00:43:53.449Z,52.7
2018-12-25T00:48:50.995Z,52.7
2018-12-25T00:53:48.702Z,52.7
2018-12-25T00:58:46.422Z,52.7
2018-12-25T01:03:43.756Z,52.7
2018-12-25T01:08:41.346Z,52.7
2018-12-25T01:13:38.885Z,52.7
2018-12-25T01:18:36.404Z,52.7
2018-12-25T01:23:33.954Z,52.7
2018-12-25T01:28:31.817Z,52.7
2018-12-25T01:33:29.459Z,52.7
2018-12-25T01:38:27.269Z,52.7
2018-12-25T01:43:24.941Z,52.7
2018-12-25T01:48:22.528Z,52.8
2018-12-25T01:53:20.374Z,52.8
2018-12-25T01:58:18.144Z,52.8
2018-12-25T02:03:15.547Z,52.8
2018-12-25T02:08:13.355Z,52.8
2018-12-25T02:13:10.755Z,52.8
2018-12-25T02:18:08.670Z,52.8
2018-12-25T02:23:05.826Z,52.8
2018-12-25T02:28:03.241Z,52.7
2018-12-25T02:33:01.131Z,52.7
2018-12-25T02:37:58.896Z,52.7
2018-12-25T02:42:56.304Z,52.7
2018-12-25T02:47:54.135Z,52.7
2018-12-25T02:52:51.528Z,52.7
2018-12-25T02:57:49.448Z,52.6
2018-12-25T03:02:47.068Z,52.7
2018-12-25T03:07:44.891Z,52.6
2018-12-25T03:12:42.249Z,52.6
2018-12-25T03:17:39.932Z,52.6
2018-12-25T03:22:37.647Z,52.6
2018-12-25T03:27:35.288Z,52.6
2018-12-25T03:32:33.096Z,52.5
2018-12-25T03:37:30.888Z,52.5
2018-12-25T03:42:28.674Z,52.5
2018-12-25T03:47:26.458Z,52.5
2018-12-25T03:52:23.769Z,52.4
2018-12-25T03:57:21.416Z,52.4
2018-12-25T04:02:18.769Z,52.4
2018-12-25T04:07:16.522Z,52.4
2018-12-25T04:12:14.273Z,52.4
2018-12-25T04:17:11.947Z,52.3
2018-12-25T04:22:09.250Z,52.3
2018-12-25T04:27:07.258Z,52.3
2018-12-25T04:32:04.859Z,52.3
2018-12-25T04:37:02.066Z,52.3
2018-12-25T04:41:59.483Z,52.2
2018-12-25T04:46:57.346Z,52.2
2018-12-25T04:51:54.152Z,52.2
2018-12-25T04:56:51.842Z,52.2
2018-12-25T05:01:49.199Z,52.1
2018-12-25T05:06:46.335Z,52.1
2018-12-25T05:11:44.100Z,52.1
2018-12-25T05:16:41.666Z,52.1
2018-12-25T05:21:39.643Z,52.1
2018-12-25T05:26:37.464Z,52
2018-12-25T05:31:35.134Z,52
2018-12-25T05:36:32.490Z,52
2018-12-25T05:41:30.339Z,52
2018-12-25T05:46:28.054Z,52
2018-12-25T05:51:25.387Z,52
2018-12-25T05:56:23.117Z,52
2018-12-25T06:01:20.751Z,51.9
2018-12-25T06:06:18.340Z,51.9
2018-12-25T06:11:15.502Z,51.9
2018-12-25T06:16:13.401Z,51.9
2018-12-25T06:21:10.993Z,51.9
2018-12-25T06:26:08.885Z,51.8
2018-12-25T06:31:06.786Z,51.8
2018-12-25T06:36:05.301Z,51.8
2018-12-25T06:41:02.985Z,51.8
2018-12-25T06:46:00.666Z,51.8
2018-12-25T06:51:04.301Z,51.8
2018-12-25T06:56:00.902Z,51.7
2018-12-25T07:00:58.698Z,51.7
2018-12-25T07:05:56.487Z,51.7
2018-12-25T07:10:53.869Z,51.7
2018-12-25T07:15:51.877Z,51.7
2018-12-25T07:20:49.486Z,51.7
2018-12-25T07:25:47.518Z,51.7
2018-12-25T07:30:45.136Z,51.7
2018-12-25T07:35:42.665Z,51.7
2018-12-25T07:40:39.963Z,51.7
2018-12-25T07:45:37.690Z,51.7
2018-12-25T07:50:35.532Z,51.7
2018-12-25T07:55:33.380Z,51.7
2018-12-25T08:00:30.687Z,51.7
2018-12-25T08:05:28.661Z,51.7
2018-12-25T08:10:26.941Z,51.7
2018-12-25T08:15:24.722Z,51.7
2018-12-25T08:20:22.652Z,51.7
2018-12-25T08:25:20.705Z,51.7
2018-12-25T08:30:18.139Z,51.7
2018-12-25T08:35:15.700Z,51.8
2018-12-25T08:40:13.406Z,51.7
2018-12-25T08:45:11.170Z,51.7
2018-12-25T08:50:08.403Z,51.7
2018-12-25T08:55:06.257Z,51.7
2018-12-25T09:00:04.093Z,51.8
2018-12-25T09:05:01.469Z,51.8
2018-12-25T09:09:59.333Z,51.8
2018-12-25T09:14:56.923Z,51.8
2018-12-25T09:19:54.569Z,51.8
2018-12-25T09:24:52.085Z,51.8
2018-12-25T09:29:49.950Z,51.8
2018-12-25T09:34:48.495Z,51.8
2018-12-25T09:39:46.070Z,51.8
2018-12-25T09:44:43.300Z,51.8
2018-12-25T09:49:41.080Z,51.8
2018-12-25T09:54:38.874Z,51.8
2018-12-25T09:59:36.282Z,51.8
2018-12-25T10:04:34.263Z,51.8
2018-12-25T10:09:31.522Z,51.9
2018-12-25T10:14:29.346Z,51.8
2018-12-25T10:19:27.301Z,51.9
2018-12-25T10:24:24.985Z,51.9
2018-12-25T10:29:22.619Z,51.9
2018-12-25T10:34:20.643Z,51.9
2018-12-25T10:39:18.467Z,51.9
2018-12-25T10:44:16.406Z,51.9
2018-12-25T10:49:14.258Z,51.9
2018-12-25T10:54:11.707Z,51.9
2018-12-25T10:59:08.955Z,51.9
2018-12-25T11:04:06.786Z,51.9
2018-12-25T11:09:03.974Z,51.9
2018-12-25T11:14:01.400Z,51.9
2018-12-25T11:18:58.740Z,51.9
2018-12-25T11:23:55.985Z,51.9
2018-12-25T11:28:54.016Z,51.9
2018-12-25T11:33:51.902Z,51.9
2018-12-25T11:38:49.802Z,52
2018-12-25T11:43:47.719Z,52
2018-12-25T11:48:45.486Z,52
2018-12-25T11:53:43.387Z,52
2018-12-25T11:58:41.213Z,52
2018-12-25T12:03:39.013Z,52
2018-12-25T12:08:36.807Z,52
2018-12-25T12:13:35.015Z,52
2018-12-25T12:18:32.663Z,52
2018-12-25T12:23:30.801Z,52
2018-12-25T12:28:28.740Z,52
2018-12-25T12:33:26.207Z,52.1
2018-12-25T12:38:23.366Z,52.1
2018-12-25T12:43:21.117Z,52.1
2018-12-25T12:48:18.403Z,52.1
2018-12-25T12:53:16.086Z,52.1
2018-12-25T12:58:13.912Z,52.1
2018-12-25T13:03:12.057Z,52.1
2018-12-25T13:08:10.012Z,52.1
2018-12-25T13:13:07.791Z,52.1
2018-12-25T13:18:05.489Z,52.1
2018-12-25T13:23:03.167Z,52.1
2018-12-25T13:28:00.491Z,52.1
2018-12-25T13:32:58.245Z,52.1
2018-12-25T13:37:56.193Z,52.1
2018-12-25T13:42:54.027Z,52.1
2018-12-25T13:47:52.056Z,52.1
2018-12-25T13:52:49.952Z,52.1
2018-12-25T13:57:47.753Z,52.1
2018-12-25T14:02:45.568Z,52.1
2018-12-25T14:07:43.269Z,52.1
2018-12-25T14:12:41.026Z,52.1
2018-12-25T14:17:38.873Z,52.1
2018-12-25T14:22:36.835Z,52.1
2018-12-25T14:27:34.482Z,52.1
2018-12-25T14:32:31.913Z,52.1
2018-12-25T14:37:29.889Z,52.1
2018-12-25T14:42:27.452Z,52
2018-12-25T14:47:25.134Z,52
2018-12-25T14:52:22.963Z,52
2018-12-25T14:57:20.896Z,52
2018-12-25T15:02:18.438Z,52
2018-12-25T15:07:16.398Z,52
2018-12-25T15:12:13.958Z,52
2018-12-25T15:17:11.872Z,51.9
2018-12-25T15:22:09.986Z,51.9
2018-12-25T15:27:07.273Z,51.9
2018-12-25T15:32:04.703Z,51.8
2018-12-25T15:37:03.026Z,51.8
2018-12-25T15:42:00.820Z,51.8
2018-12-25T15:46:58.738Z,51.8
2018-12-25T15:51:56.659Z,51.8
2018-12-25T15:56:54.481Z,51.7
2018-12-25T16:01:52.755Z,51.7
2018-12-25T16:06:50.682Z,51.7
2018-12-25T16:11:48.448Z,51.7
2018-12-25T16:16:46.471Z,51.7
2018-12-25T16:21:44.160Z,51.7
2018-12-25T16:26:41.888Z,51.6
2018-12-25T16:31:39.804Z,51.6
2018-12-25T16:36:37.269Z,51.6
2018-12-25T16:41:35.122Z,51.6
2018-12-25T16:46:32.924Z,51.6
2018-12-25T16:51:31.112Z,51.5
2018-12-25T16:56:28.880Z,51.5
2018-12-25T17:01:26.881Z,51.5
2018-12-25T17:06:24.558Z,51.5
2018-12-25T17:11:22.491Z,51.5
2018-12-25T17:16:20.337Z,51.5
2018-12-25T17:21:18.350Z,51.5
2018-12-25T17:26:15.611Z,51.5
2018-12-25T17:31:13.517Z,51.4
2018-12-25T17:36:11.445Z,51.4
2018-12-25T17:41:09.300Z,51.4
2018-12-25T17:46:06.638Z,51.4
2018-12-25T17:51:04.582Z,51.4
2018-12-25T17:56:02.464Z,51.4
2018-12-25T18:01:00.252Z,51.3
2018-12-25T18:05:58.040Z,51.3
2018-12-25T18:10:55.832Z,51.3
2018-12-25T18:15:53.258Z,51.3
2018-12-25T18:20:51.147Z,51.3
2018-12-25T18:25:49.145Z,51.3
2018-12-25T18:30:46.954Z,51.3
2018-12-25T18:35:44.803Z,51.2
2018-12-25T18:40:42.203Z,51.2
2018-12-25T18:45:40.141Z,51.2
2018-12-25T18:50:37.979Z,51.2
2018-12-25T18:55:35.483Z,51.2
2018-12-25T19:00:33.439Z,51.2
2018-12-25T19:05:30.984Z,51.2
2018-12-25T19:10:28.848Z,51.2
2018-12-25T19:15:26.930Z,51.2
2018-12-25T19:20:24.631Z,51.2
2018-12-25T19:25:22.081Z,51.2
2018-12-25T19:30:19.819Z,51.2
2018-12-25T19:35:17.587Z,51.1
2018-12-25T19:40:15.422Z,51.1
2018-12-25T19:45:12.661Z,51.1
2018-12-25T19:50:10.484Z,51.1
2018-12-25T19:55:07.625Z,51.1
2018-12-25T20:00:05.464Z,51.2
2018-12-25T20:05:02.922Z,51.1
2018-12-25T20:10:00.545Z,51.1
2018-12-25T20:14:57.624Z,51.1
2018-12-25T20:19:55.489Z,51.1
2018-12-25T20:24:53.256Z,51.1
2018-12-25T20:29:50.880Z,51
2018-12-25T20:34:47.824Z,51
2018-12-25T20:39:45.531Z,51
2018-12-25T20:44:43.395Z,51
2018-12-25T20:49:40.739Z,51
2018-12-25T20:54:37.760Z,51
2018-12-25T20:59:35.122Z,51
2018-12-25T21:04:33.053Z,51
2018-12-25T21:09:30.631Z,51
2018-12-25T21:14:28.394Z,51
2018-12-25T21:19:28.466Z,51
2018-12-25T21:24:25.701Z,51
2018-12-25T21:29:23.464Z,51
2018-12-25T21:34:20.791Z,51
2018-12-25T21:39:18.611Z,51
2018-12-25T21:44:16.398Z,51
2018-12-25T21:49:13.821Z,51
2018-12-25T21:54:11.692Z,51
2018-12-25T21:59:09.563Z,51
2018-12-25T22:04:07.112Z,51
2018-12-25T22:09:04.923Z,51
2018-12-25T22:14:02.751Z,51
2018-12-25T22:19:00.492Z,51
2018-12-25T22:23:58.123Z,51
2018-12-25T22:28:55.591Z,51
2018-12-25T22:33:53.604Z,51
2018-12-25T22:38:51.326Z,50.9
2018-12-25T22:43:49.019Z,51
2018-12-25T22:48:46.816Z,50.9
2018-12-25T22:53:44.587Z,50.9
2018-12-25T22:58:42.378Z,51
2018-12-25T23:03:40.060Z,50.9
2018-12-25T23:08:37.651Z,50.9
2018-12-25T23:13:35.045Z,50.9
2018-12-25T23:18:33.083Z,50.9
2018-12-25T23:23:30.748Z,50.9
2018-12-25T23:28:28.521Z,50.9
2018-12-25T23:33:26.333Z,50.9
2018-12-25T23:38:24.245Z,50.9
2018-12-25T23:43:22.198Z,50.9
2018-12-25T23:48:19.558Z,50.9
2018-12-25T23:53:17.272Z,50.9
2018-12-25T23:58:14.937Z,50.9
